createdAt,value
2023-09-22T00:02:32.053Z,22.19
2023-09-22T00:05:03.038Z,22.22
2023-09-22T00:07:35.497Z,22.12
2023-09-22T00:10:09.234Z,22.13
2023-09-22T00:12:41.323Z,22.15
2023-09-22T00:15:15.002Z,22.11
2023-09-22T00:17:46.885Z,22.13
2023-09-22T00:20:19.454Z,22.17
2023-09-22T00:22:49.935Z,22.09
2023-09-22T00:25:23.162Z,22.10
2023-09-22T00:27:55.125Z,22.09
2023-09-22T00:30:29.328Z,22.09
2023-09-22T00:33:01.603Z,22.12
2023-09-22T00:35:33.684Z,22.12
2023-09-22T00:38:08.045Z,22.13
2023-09-22T00:40:40.120Z,22.08
2023-09-22T00:43:13.545Z,22.08
2023-09-22T00:45:48.469Z,22.03
2023-09-22T00:48:25.187Z,22.08
2023-09-22T00:50:58.165Z,22.07
2023-09-22T00:53:33.269Z,22.03
2023-09-22T00:56:06.063Z,22.04
2023-09-22T00:58:38.454Z,22.01
2023-09-22T01:01:10.783Z,21.93
2023-09-22T01:03:42.869Z,21.95
2023-09-22T01:06:15.028Z,21.93
2023-09-22T01:08:46.933Z,21.92
2023-09-22T01:11:18.880Z,21.92
2023-09-22T01:13:50.884Z,21.89
2023-09-22T01:16:23.001Z,21.86
2023-09-22T01:18:54.903Z,21.89
2023-09-22T01:21:30.309Z,21.90
2023-09-22T01:24:02.288Z,21.89
2023-09-22T01:26:34.161Z,21.90
2023-09-22T01:29:06.473Z,21.90
2023-09-22T01:31:39.285Z,21.85
2023-09-22T01:34:12.086Z,21.87
2023-09-22T01:36:44.875Z,21.87
2023-09-22T01:39:17.498Z,21.88
2023-09-22T01:41:49.500Z,21.86
2023-09-22T01:44:21.516Z,21.85
2023-09-22T01:46:53.564Z,21.87
2023-09-22T01:49:25.829Z,21.84
2023-09-22T01:51:57.716Z,21.79
2023-09-22T01:54:29.717Z,21.78
2023-09-22T01:57:01.729Z,21.76
2023-09-22T01:59:33.955Z,21.68
2023-09-22T02:02:05.897Z,21.63
2023-09-22T02:04:37.860Z,21.60
2023-09-22T02:07:11.599Z,21.64
2023-09-22T02:09:45.634Z,21.65
2023-09-22T02:12:18.424Z,21.65
2023-09-22T02:14:50.346Z,21.59
2023-09-22T02:17:22.456Z,21.54
2023-09-22T02:19:54.380Z,21.56
2023-09-22T02:22:26.373Z,21.52
2023-09-22T02:24:58.483Z,21.45
2023-09-22T02:27:30.525Z,21.48
2023-09-22T02:30:03.307Z,21.44
2023-09-22T02:32:35.600Z,21.41
2023-09-22T02:35:09.651Z,21.40
2023-09-22T02:37:41.881Z,21.37
2023-09-22T02:40:15.974Z,21.37
2023-09-22T02:42:48.130Z,21.28
2023-09-22T02:45:20.466Z,21.19
2023-09-22T02:47:54.669Z,21.12
2023-09-22T02:50:26.705Z,21.19
2023-09-22T02:52:58.676Z,21.17
2023-09-22T02:55:30.789Z,21.18
2023-09-22T02:58:02.720Z,21.09
2023-09-22T03:00:35.332Z,21.14
2023-09-22T03:03:08.133Z,21.15
2023-09-22T03:05:40.531Z,21.19
2023-09-22T03:08:12.485Z,21.14
2023-09-22T03:10:44.753Z,21.07
2023-09-22T03:13:16.914Z,21.07
2023-09-22T03:15:49.267Z,21.08
2023-09-22T03:18:20.674Z,21.09
2023-09-22T03:20:52.551Z,21.05
2023-09-22T03:23:25.135Z,21.00
2023-09-22T03:25:55.822Z,20.98
2023-09-22T03:28:27.850Z,20.95
2023-09-22T03:31:02.313Z,20.94
2023-09-22T03:33:35.136Z,20.91
2023-09-22T03:36:11.143Z,20.85
2023-09-22T03:38:48.082Z,20.89
2023-09-22T03:41:23.713Z,20.80
2023-09-22T03:43:55.826Z,20.78
2023-09-22T03:46:27.797Z,20.73
2023-09-22T03:48:59.878Z,20.79
2023-09-22T03:51:31.893Z,20.69
2023-09-22T03:54:04.112Z,20.73
2023-09-22T03:56:38.885Z,20.67
2023-09-22T03:59:12.791Z,20.68
2023-09-22T04:01:46.039Z,20.67
2023-09-22T04:04:18.716Z,20.64
2023-09-22T04:06:49.264Z,20.70
2023-09-22T04:09:21.216Z,20.77
2023-09-22T04:11:54.179Z,20.85
2023-09-22T04:14:26.064Z,20.88
2023-09-22T04:16:58.011Z,20.85
2023-09-22T04:19:34.442Z,20.80
2023-09-22T04:22:08.831Z,20.80
2023-09-22T04:24:48.533Z,20.79
2023-09-22T04:27:20.591Z,20.70
2023-09-22T04:29:54.286Z,20.66
2023-09-22T04:32:26.204Z,20.71
2023-09-22T04:35:00.635Z,20.75
2023-09-22T04:37:32.717Z,20.74
2023-09-22T04:40:10.620Z,20.76
2023-09-22T04:42:42.512Z,20.80
2023-09-22T04:45:14.674Z,20.80
2023-09-22T04:47:47.608Z,20.76
2023-09-22T04:50:20.142Z,20.74
2023-09-22T04:52:51.504Z,20.75
2023-09-22T04:55:23.904Z,20.71
2023-09-22T04:57:55.836Z,20.63
2023-09-22T05:00:28.458Z,20.62
2023-09-22T05:03:00.817Z,20.64
2023-09-22T05:05:32.128Z,20.68
2023-09-22T05:08:04.412Z,20.73
2023-09-22T05:10:36.430Z,20.78
2023-09-22T05:13:08.518Z,20.80
2023-09-22T05:15:42.924Z,20.82
2023-09-22T05:18:15.441Z,20.82
2023-09-22T05:20:47.841Z,20.81
2023-09-22T05:23:19.850Z,20.83
2023-09-22T05:25:51.918Z,20.87
2023-09-22T05:28:24.276Z,20.89
2023-09-22T05:30:58.636Z,21.04
2023-09-22T05:33:32.689Z,21.01
2023-09-22T05:36:06.545Z,21.01
2023-09-22T05:38:38.743Z,21.03
2023-09-22T05:41:12.098Z,21.03
2023-09-22T05:43:44.428Z,21.02
2023-09-22T05:46:16.428Z,21.07
2023-09-22T05:48:49.637Z,21.10
2023-09-22T05:51:22.228Z,21.10
2023-09-22T05:53:54.911Z,21.09
2023-09-22T05:56:27.104Z,21.09
2023-09-22T05:58:59.084Z,21.11
2023-09-22T06:01:33.436Z,21.13
2023-09-22T06:04:06.563Z,21.15
2023-09-22T06:06:39.196Z,21.17
2023-09-22T06:09:12.814Z,21.19
2023-09-22T06:11:45.016Z,21.21
2023-09-22T06:14:17.658Z,21.21
2023-09-22T06:16:48.120Z,21.24
2023-09-22T06:19:21.263Z,21.24
2023-09-22T06:21:53.562Z,21.30
2023-09-22T06:24:25.713Z,21.34
2023-09-22T06:26:57.765Z,21.36
2023-09-22T06:29:29.960Z,21.41
2023-09-22T06:32:02.785Z,21.43
2023-09-22T06:34:35.164Z,21.47
2023-09-22T06:37:10.304Z,21.50
2023-09-22T06:39:43.748Z,21.56
2023-09-22T06:42:16.098Z,21.52
2023-09-22T06:44:48.190Z,21.57
2023-09-22T06:47:21.601Z,21.53
2023-09-22T06:49:53.569Z,21.52
2023-09-22T06:52:25.687Z,21.54
2023-09-22T06:54:57.700Z,21.48
2023-09-22T06:57:30.258Z,21.38
2023-09-22T07:00:05.775Z,21.46
2023-09-22T07:02:38.056Z,21.51
2023-09-22T07:05:11.648Z,21.52
2023-09-22T07:07:44.048Z,21.55
2023-09-22T07:10:17.568Z,21.56
2023-09-22T07:12:49.672Z,21.58
2023-09-22T07:15:23.702Z,21.60
2023-09-22T07:17:55.932Z,21.57
2023-09-22T07:20:27.834Z,21.62
2023-09-22T07:22:59.855Z,21.67
2023-09-22T07:25:32.007Z,21.76
2023-09-22T07:28:04.118Z,21.68
2023-09-22T07:30:36.757Z,21.63
2023-09-22T07:33:10.468Z,21.74
2023-09-22T07:35:43.230Z,21.84
2023-09-22T07:38:15.761Z,21.88
2023-09-22T07:40:47.920Z,21.85
2023-09-22T07:43:20.312Z,21.85
2023-09-22T07:45:52.358Z,21.84
2023-09-22T07:48:24.572Z,21.86
2023-09-22T07:50:56.880Z,21.88
2023-09-22T07:53:30.158Z,21.94
2023-09-22T07:56:02.536Z,21.94
2023-09-22T07:58:33.155Z,21.90
2023-09-22T08:01:08.367Z,21.94
2023-09-22T08:03:40.606Z,21.94
2023-09-22T08:06:13.063Z,21.95
2023-09-22T08:08:43.734Z,21.94
2023-09-22T08:11:15.929Z,21.98
2023-09-22T08:13:48.246Z,22.05
2023-09-22T08:16:20.334Z,22.07
2023-09-22T08:18:52.503Z,22.07
2023-09-22T08:21:26.888Z,22.02
2023-09-22T08:23:59.991Z,22.11
2023-09-22T08:26:32.278Z,22.24
2023-09-22T08:29:05.773Z,22.30
2023-09-22T08:31:38.141Z,22.40
2023-09-22T08:34:10.496Z,22.47
2023-09-22T08:36:42.720Z,22.51
2023-09-22T08:39:16.972Z,22.62
2023-09-22T08:41:49.481Z,22.62
2023-09-22T08:44:20.973Z,22.49
2023-09-22T08:46:54.100Z,22.48
2023-09-22T08:49:27.624Z,22.56
2023-09-22T08:52:01.288Z,22.69
2023-09-22T08:54:33.491Z,22.75
2023-09-22T08:57:05.510Z,22.75
2023-09-22T08:59:37.817Z,22.92
2023-09-22T09:02:12.311Z,22.94
2023-09-22T09:04:44.465Z,22.96
2023-09-22T09:07:20.219Z,23.06
2023-09-22T09:09:54.137Z,23.13
2023-09-22T09:12:26.548Z,23.23
2023-09-22T09:15:01.249Z,23.12
2023-09-22T09:17:33.411Z,23.17
2023-09-22T09:20:07.097Z,23.21
2023-09-22T09:22:41.710Z,23.26
2023-09-22T09:25:16.061Z,23.21
2023-09-22T09:27:48.825Z,23.22
2023-09-22T09:30:21.740Z,23.35
2023-09-22T09:32:53.710Z,23.46
2023-09-22T09:35:44.141Z,23.45
2023-09-22T09:38:22.009Z,23.56
2023-09-22T09:40:56.429Z,23.66
2023-09-22T09:43:28.559Z,23.68
2023-09-22T09:46:00.749Z,23.63
2023-09-22T09:48:35.036Z,23.68
2023-09-22T09:51:13.919Z,23.66
2023-09-22T09:53:47.910Z,23.76
2023-09-22T09:56:21.320Z,23.77
2023-09-22T09:58:54.272Z,23.88
2023-09-22T10:01:27.146Z,23.90
2023-09-22T10:04:00.598Z,23.90
2023-09-22T10:06:38.351Z,23.75
2023-09-22T10:09:14.808Z,23.87
2023-09-22T10:11:46.930Z,24.03
2023-09-22T10:14:52.505Z,24.09
2023-09-22T10:17:26.325Z,24.14
2023-09-22T10:20:01.529Z,24.14
2023-09-22T10:22:33.775Z,24.04
2023-09-22T10:25:34.148Z,24.06
2023-09-22T10:28:10.573Z,24.18
2023-09-22T10:31:06.701Z,24.25
2023-09-22T10:33:38.958Z,24.14
2023-09-22T10:36:11.472Z,24.03
2023-09-22T10:38:55.160Z,24.12
2023-09-22T10:41:27.210Z,24.12
2023-09-22T10:44:03.257Z,24.09
2023-09-22T10:46:35.388Z,24.06
2023-09-22T10:49:07.604Z,23.95
2023-09-22T10:51:48.739Z,23.99
2023-09-22T10:54:20.852Z,23.83
2023-09-22T10:56:53.005Z,23.88
2023-09-22T10:59:34.898Z,24.09
2023-09-22T11:02:07.371Z,24.29
2023-09-22T11:04:48.330Z,24.48
2023-09-22T11:07:34.543Z,24.64
2023-09-22T11:10:07.348Z,24.82
2023-09-22T11:12:39.402Z,24.82
2023-09-22T11:15:13.076Z,24.69
2023-09-22T11:17:47.491Z,24.49
2023-09-22T11:20:27.301Z,24.54
2023-09-22T11:23:02.449Z,24.54
2023-09-22T11:25:34.621Z,24.69
2023-09-22T11:28:07.447Z,24.68
2023-09-22T11:30:41.078Z,24.80
2023-09-22T11:33:18.686Z,24.96
2023-09-22T11:35:53.762Z,24.91
2023-09-22T11:38:28.374Z,24.78
2023-09-22T11:41:10.805Z,24.77
2023-09-22T11:43:47.645Z,24.76
2023-09-22T11:46:26.519Z,24.77
2023-09-22T11:49:03.205Z,24.77
2023-09-22T11:51:51.919Z,24.81
2023-09-22T11:54:26.086Z,24.74
2023-09-22T11:57:00.467Z,24.74
2023-09-22T11:59:35.850Z,24.86
2023-09-22T12:02:08.606Z,24.97
2023-09-22T12:04:41.014Z,24.95
2023-09-22T12:07:13.609Z,25.01
2023-09-22T12:09:44.028Z,24.98
2023-09-22T12:12:17.471Z,24.89
2023-09-22T12:14:49.899Z,24.96
2023-09-22T12:17:20.747Z,25.14
2023-09-22T12:19:53.100Z,25.13
2023-09-22T12:22:23.655Z,24.94
2023-09-22T12:24:55.872Z,24.70
2023-09-22T12:27:28.422Z,24.50
2023-09-22T12:29:58.915Z,24.25
2023-09-22T12:32:31.698Z,24.22
2023-09-22T12:35:06.359Z,24.17
2023-09-22T12:37:38.605Z,24.07
2023-09-22T12:40:13.241Z,24.10
2023-09-22T12:42:45.862Z,24.07
2023-09-22T12:45:18.603Z,24.06
2023-09-22T12:47:50.733Z,24.01
2023-09-22T12:50:22.657Z,23.93
2023-09-22T12:52:54.722Z,23.84
2023-09-22T12:55:26.905Z,23.89
2023-09-22T12:57:59.371Z,23.86
2023-09-22T13:00:33.612Z,23.88
2023-09-22T13:03:06.239Z,24.04
2023-09-22T13:05:43.753Z,24.15
2023-09-22T13:08:17.050Z,23.96
2023-09-22T13:10:49.151Z,23.85
2023-09-22T13:13:21.220Z,23.68
2023-09-22T13:15:54.130Z,23.69
2023-09-22T13:18:26.303Z,23.71
2023-09-22T13:20:58.488Z,23.67
2023-09-22T13:23:31.076Z,23.55
2023-09-22T13:26:05.231Z,23.40
2023-09-22T13:28:37.278Z,23.25
2023-09-22T13:31:09.501Z,23.27
2023-09-22T13:33:41.804Z,23.20
2023-09-22T13:36:19.759Z,23.21
2023-09-22T13:38:53.033Z,23.13
2023-09-22T13:41:25.593Z,23.05
2023-09-22T13:43:58.022Z,23.03
2023-09-22T13:46:30.144Z,22.91
2023-09-22T13:49:02.272Z,22.93
2023-09-22T13:51:34.334Z,22.92
2023-09-22T13:54:06.960Z,22.99
2023-09-22T13:56:37.424Z,23.09
2023-09-22T13:59:10.046Z,22.99
2023-09-22T14:01:42.223Z,23.04
2023-09-22T14:04:14.294Z,23.11
2023-09-22T14:06:46.335Z,23.18
2023-09-22T14:09:18.260Z,22.97
2023-09-22T14:11:50.170Z,22.91
2023-09-22T14:14:22.806Z,22.85
2023-09-22T14:16:53.441Z,22.83
2023-09-22T14:19:25.989Z,22.82
2023-09-22T14:21:57.998Z,22.84
2023-09-22T14:24:29.985Z,22.81
2023-09-22T14:27:01.990Z,22.84
2023-09-22T14:29:34.013Z,22.76
2023-09-22T14:32:06.429Z,22.64
2023-09-22T14:34:38.759Z,22.53
2023-09-22T14:37:11.477Z,22.58
2023-09-22T14:39:42.699Z,22.53
2023-09-22T14:42:14.684Z,22.60
2023-09-22T14:44:46.783Z,22.44
2023-09-22T14:47:18.867Z,22.33
2023-09-22T14:49:51.123Z,22.25
2023-09-22T14:52:23.056Z,22.24
2023-09-22T14:54:56.108Z,22.20
2023-09-22T14:57:28.082Z,22.03
2023-09-22T15:00:00.226Z,22.04
2023-09-22T15:02:32.958Z,21.89
2023-09-22T15:05:04.073Z,21.73
2023-09-22T15:07:36.416Z,21.45
2023-09-22T15:10:09.975Z,21.43
2023-09-22T15:12:42.197Z,21.28
2023-09-22T15:15:12.935Z,21.24
2023-09-22T15:17:44.997Z,21.28
2023-09-22T15:20:17.192Z,21.18
2023-09-22T15:22:49.134Z,21.11
2023-09-22T15:25:21.386Z,21.10
2023-09-22T15:27:53.373Z,21.10
2023-09-22T15:30:25.767Z,21.10
2023-09-22T15:32:57.780Z,21.06
2023-09-22T15:35:29.719Z,20.96
2023-09-22T15:38:01.924Z,20.84
2023-09-22T15:40:34.095Z,20.81
2023-09-22T15:43:06.999Z,20.82
2023-09-22T15:45:38.970Z,20.80
2023-09-22T15:48:11.006Z,20.85
2023-09-22T15:50:42.976Z,20.67
2023-09-22T15:53:15.506Z,20.52
2023-09-22T15:55:46.045Z,20.43
2023-09-22T15:58:20.109Z,20.31
2023-09-22T16:00:52.617Z,20.38
2023-09-22T16:03:24.910Z,20.34
2023-09-22T16:05:59.671Z,20.14
2023-09-22T16:08:32.223Z,19.97
2023-09-22T16:11:04.545Z,19.94
2023-09-22T16:13:37.525Z,19.89
2023-09-22T16:16:10.743Z,19.97
2023-09-22T16:18:43.060Z,19.89
2023-09-22T16:21:15.063Z,19.85
2023-09-22T16:23:47.727Z,19.74
2023-09-22T16:26:18.509Z,19.83
2023-09-22T16:28:51.075Z,19.70
2023-09-22T16:31:22.405Z,19.54
2023-09-22T16:33:55.422Z,19.53
2023-09-22T16:36:27.573Z,19.51
2023-09-22T16:38:59.766Z,19.43
2023-09-22T16:41:32.074Z,19.40
2023-09-22T16:44:04.466Z,19.41
2023-09-22T16:46:36.630Z,19.32
2023-09-22T16:49:08.817Z,19.09
2023-09-22T16:51:40.848Z,18.83
2023-09-22T16:54:12.775Z,18.87
2023-09-22T16:56:44.840Z,18.89
2023-09-22T16:59:17.076Z,19.00
2023-09-22T17:01:49.066Z,19.03
2023-09-22T17:04:21.194Z,19.07
2023-09-22T17:06:53.248Z,18.92
2023-09-22T17:09:25.660Z,18.81
2023-09-22T17:11:57.576Z,18.85
2023-09-22T17:14:30.896Z,18.84
2023-09-22T17:17:04.109Z,18.76
2023-09-22T17:19:36.907Z,18.72
2023-09-22T17:22:08.013Z,18.67
2023-09-22T17:24:39.920Z,18.62
2023-09-22T17:27:12.306Z,18.59
2023-09-22T17:29:48.265Z,18.55
2023-09-22T17:32:20.265Z,18.63
2023-09-22T17:34:53.707Z,18.76
2023-09-22T17:37:25.893Z,18.62
2023-09-22T17:39:58.131Z,18.54
2023-09-22T17:42:30.064Z,18.61
2023-09-22T17:45:01.951Z,18.56
2023-09-22T17:47:34.815Z,18.67
2023-09-22T17:50:05.733Z,18.74
2023-09-22T17:52:37.648Z,18.69
2023-09-22T17:55:10.939Z,18.75
2023-09-22T17:57:42.868Z,18.81
2023-09-22T18:00:16.139Z,18.76
2023-09-22T18:02:48.234Z,18.65
2023-09-22T18:05:20.281Z,18.74
2023-09-22T18:07:52.281Z,18.72
2023-09-22T18:10:24.327Z,18.67
2023-09-22T18:12:56.529Z,18.63
2023-09-22T18:15:28.475Z,18.65
2023-09-22T18:18:00.575Z,18.73
2023-09-22T18:20:32.910Z,18.79
2023-09-22T18:23:07.804Z,18.65
2023-09-22T18:25:42.467Z,18.69
2023-09-22T18:28:14.411Z,18.61
2023-09-22T18:30:46.994Z,18.53
2023-09-22T18:33:19.374Z,18.42
2023-09-22T18:35:58.014Z,18.46
2023-09-22T18:38:30.053Z,18.39
2023-09-22T18:41:02.577Z,18.41
2023-09-22T18:43:34.689Z,18.33
2023-09-22T18:46:07.138Z,18.40
2023-09-22T18:48:39.129Z,18.32
2023-09-22T18:51:11.449Z,18.24
2023-09-22T18:53:43.521Z,18.20
2023-09-22T18:56:15.956Z,18.18
2023-09-22T18:58:49.062Z,18.16
2023-09-22T19:01:23.812Z,18.10
2023-09-22T19:03:57.392Z,18.14
2023-09-22T19:06:29.992Z,18.15
2023-09-22T19:09:02.402Z,18.24
2023-09-22T19:11:35.809Z,18.30
2023-09-22T19:14:08.410Z,18.32
2023-09-22T19:16:40.583Z,18.36
2023-09-22T19:19:13.028Z,18.31
2023-09-22T19:21:45.282Z,18.34
2023-09-22T19:24:17.498Z,18.26
2023-09-22T19:26:53.146Z,18.31
2023-09-22T19:29:25.344Z,18.35
2023-09-22T19:31:57.622Z,18.41
2023-09-22T19:34:30.816Z,18.49
2023-09-22T19:37:03.586Z,18.51
2023-09-22T19:39:34.074Z,18.42
2023-09-22T19:42:06.198Z,18.19
2023-09-22T19:44:39.059Z,18.25
2023-09-22T19:47:11.741Z,18.24
2023-09-22T19:49:44.282Z,18.22
2023-09-22T19:52:16.493Z,18.12
2023-09-22T19:54:48.541Z,18.17
2023-09-22T19:57:20.706Z,18.17
2023-09-22T19:59:52.832Z,18.16
2023-09-22T20:02:25.316Z,18.20
2023-09-22T20:04:57.702Z,18.14
2023-09-22T20:07:30.894Z,18.29
2023-09-22T20:10:02.926Z,18.39
2023-09-22T20:12:35.011Z,18.45
2023-09-22T20:15:08.536Z,18.31
2023-09-22T20:17:40.649Z,18.16
2023-09-22T20:20:14.396Z,18.03
2023-09-22T20:22:48.061Z,18.07
2023-09-22T20:25:20.445Z,18.26
2023-09-22T20:27:52.464Z,18.33
2023-09-22T20:30:24.709Z,18.27
2023-09-22T20:32:58.133Z,18.38
2023-09-22T20:35:33.053Z,18.37
2023-09-22T20:38:05.539Z,18.40
2023-09-22T20:40:37.573Z,18.39
2023-09-22T20:43:10.138Z,18.40
2023-09-22T20:45:43.243Z,18.39
2023-09-22T20:48:15.524Z,18.43
2023-09-22T20:50:50.562Z,18.42
2023-09-22T20:53:22.892Z,18.38
2023-09-22T20:55:55.073Z,18.35
2023-09-22T20:58:28.648Z,18.37
2023-09-22T21:01:07.609Z,18.42
2023-09-22T21:03:41.175Z,18.53
2023-09-22T21:06:14.502Z,18.53
2023-09-22T21:08:47.768Z,18.59
2023-09-22T21:11:20.207Z,18.58
2023-09-22T21:13:52.177Z,18.60
2023-09-22T21:16:24.488Z,18.60
2023-09-22T21:18:56.905Z,18.62
2023-09-22T21:21:29.677Z,18.63
2023-09-22T21:24:01.916Z,18.65
2023-09-22T21:26:33.947Z,18.56
2023-09-22T21:29:08.175Z,18.59
2023-09-22T21:31:41.108Z,18.67
2023-09-22T21:34:14.198Z,18.72
2023-09-22T21:36:46.403Z,18.72
2023-09-22T21:39:18.306Z,18.68
2023-09-22T21:41:50.644Z,18.70
2023-09-22T21:44:22.485Z,18.71
2023-09-22T21:46:54.525Z,18.69
2023-09-22T21:49:26.543Z,18.70
2023-09-22T21:51:58.473Z,18.71
2023-09-22T21:54:30.950Z,18.74
2023-09-22T21:57:05.825Z,18.73
2023-09-22T21:59:37.689Z,18.72
2023-09-22T22:02:09.925Z,18.72
2023-09-22T22:04:46.263Z,18.74
2023-09-22T22:07:19.129Z,18.75
2023-09-22T22:09:52.836Z,18.76
2023-09-22T22:12:25.358Z,18.74
2023-09-22T22:14:57.416Z,18.71
2023-09-22T22:17:30.164Z,18.68
2023-09-22T22:20:04.946Z,18.66
2023-09-22T22:22:37.136Z,18.60
2023-09-22T22:25:11.438Z,18.41
2023-09-22T22:27:44.194Z,18.43
2023-09-22T22:30:16.791Z,18.51
2023-09-22T22:32:49.713Z,18.50
2023-09-22T22:35:22.217Z,18.53
2023-09-22T22:37:54.187Z,18.54
2023-09-22T22:40:26.307Z,18.54
2023-09-22T22:42:58.524Z,18.38
2023-09-22T22:45:30.660Z,18.43
2023-09-22T22:48:07.930Z,18.45
2023-09-22T22:50:40.188Z,18.43
2023-09-22T22:53:12.237Z,18.24
2023-09-22T22:55:44.491Z,18.08
2023-09-22T22:58:20.803Z,18.02
2023-09-22T23:00:55.929Z,18.14
2023-09-22T23:03:30.914Z,18.10
2023-09-22T23:06:05.747Z,18.14
2023-09-22T23:08:41.115Z,18.16
2023-09-22T23:11:13.922Z,18.21
2023-09-22T23:13:47.386Z,18.29
2023-09-22T23:16:23.759Z,18.22
2023-09-22T23:18:57.147Z,18.17
2023-09-22T23:21:33.179Z,18.09
2023-09-22T23:24:11.513Z,18.16
2023-09-22T23:26:43.726Z,18.17
2023-09-22T23:29:17.169Z,17.93
2023-09-22T23:31:49.809Z,17.88
2023-09-22T23:34:22.540Z,17.98
2023-09-22T23:36:53.459Z,18.09
2023-09-22T23:39:26.319Z,18.19
2023-09-22T23:41:58.964Z,18.09
2023-09-22T23:44:29.376Z,17.97
2023-09-22T23:47:02.123Z,17.98
2023-09-22T23:49:37.696Z,18.08
2023-09-22T23:52:09.653Z,18.14
2023-09-22T23:54:41.598Z,18.19
2023-09-22T23:57:14.111Z,18.20
2023-09-22T23:59:48.999Z,18.21
